Time;durP1;ratioP1;P1;durP2;ratioP2;P2;SDS_P1;SDS_P2;PMS_P1;PMS_P2;Temp;Humidity;BMP_temperature;BMP_pressure;BME280_temperature;BME280_humidity;BME280_pressure;Samples;Min_cycle;Max_cycle;Signal;HPM_P1;HPM_P2
2022/01/30 00:00:25;;;;;;;7.03;3.50;;;7.40;99.90;;;;;;2612873;54;21072;-75
2022/01/30 00:02:53;;;;;;;13.70;5.40;;;7.40;99.90;;;;;;2613233;47;20486;-74
2022/01/30 00:05:19;;;;;;;12.37;5.77;;;7.40;99.90;;;;;;2615600;54;20157;-74
2022/01/30 00:07:45;;;;;;;13.50;3.77;;;7.40;99.90;;;;;;2614426;39;20908;-74
2022/01/30 00:10:13;;;;;;;12.07;5.50;;;7.50;99.90;;;;;;2613490;54;20419;-74
2022/01/30 00:12:53;;;;;;;13.63;5.20;;;7.50;99.90;;;;;;2614549;47;20429;-74
2022/01/30 00:15:27;;;;;;;15.53;6.23;;;7.50;99.90;;;;;;2612966;54;20419;-75
2022/01/30 00:18:07;;;;;;;11.20;4.50;;;7.50;99.90;;;;;;2613797;54;20546;-74
2022/01/30 00:20:35;;;;;;;25.50;5.70;;;7.40;99.90;;;;;;2614670;54;20430;-76
2022/01/30 00:23:16;;;;;;;11.73;5.13;;;7.30;99.90;;;;;;2614482;54;20466;-74
2022/01/30 00:26:03;;;;;;;22.20;4.67;;;7.20;99.90;;;;;;2614457;54;20421;-75
2022/01/30 00:28:32;;;;;;;19.50;5.40;;;7.20;99.90;;;;;;2614285;47;20400;-75
2022/01/30 00:30:58;;;;;;;13.27;4.77;;;7.10;99.90;;;;;;2613262;54;20424;-74
2022/01/30 00:33:24;;;;;;;22.93;7.53;;;7.10;99.90;;;;;;2614687;47;20404;-74
2022/01/30 00:35:50;;;;;;;18.20;5.47;;;7.10;99.90;;;;;;2612535;47;20423;-74
2022/01/30 00:38:18;;;;;;;9.63;5.40;;;7.00;99.90;;;;;;2612684;47;20427;-75
2022/01/30 00:40:45;;;;;;;16.63;5.00;;;7.00;99.90;;;;;;2614302;47;20441;-73
2022/01/30 00:43:11;;;;;;;24.27;6.30;;;7.00;99.90;;;;;;2612924;47;20428;-74
2022/01/30 00:45:37;;;;;;;12.47;4.30;;;7.00;99.90;;;;;;2613316;47;20519;-73
2022/01/30 00:48:04;;;;;;;14.30;5.07;;;6.90;99.90;;;;;;2613703;39;20757;-74
2022/01/30 00:50:30;;;;;;;14.30;4.50;;;6.80;99.90;;;;;;2614064;47;20420;-73
2022/01/30 00:52:56;;;;;;;20.80;5.70;;;6.80;99.90;;;;;;2615098;54;20435;-74
2022/01/30 00:55:24;;;;;;;17.23;5.37;;;6.90;99.90;;;;;;2614431;54;20411;-74
2022/01/30 00:57:50;;;;;;;18.70;6.20;;;6.90;99.90;;;;;;2612686;47;20402;-74
2022/01/30 01:00:17;;;;;;;14.47;4.37;;;6.70;99.90;;;;;;2612313;39;20968;-75
2022/01/30 01:02:44;;;;;;;19.40;4.70;;;6.70;99.90;;;;;;2611373;47;20443;-76
2022/01/30 01:05:10;;;;;;;20.27;5.40;;;6.80;99.90;;;;;;2612835;47;20451;-74
2022/01/30 01:07:41;;;;;;;11.43;5.20;;;6.70;99.90;;;;;;2610056;54;20495;-74
2022/01/30 01:10:25;;;;;;;5.67;4.00;;;6.70;99.90;;;;;;2615415;39;21140;-74
2022/01/30 01:13:06;;;;;;;13.93;6.03;;;6.70;99.90;;;;;;2612890;51;20412;-74
2022/01/30 01:23:38;;;;;;;10.43;2.83;;;7.00;99.90;;;;;;2613708;50;20426;-74
2022/01/30 01:26:04;;;;;;;17.53;4.80;;;7.10;99.90;;;;;;2615187;47;20412;-74
2022/01/30 01:28:30;;;;;;;23.97;6.17;;;7.10;99.90;;;;;;2612250;47;20546;-74
2022/01/30 01:30:57;;;;;;;14.73;6.43;;;7.10;99.90;;;;;;2610470;54;20250;-75
2022/01/30 01:33:29;;;;;;;10.73;4.77;;;7.10;99.90;;;;;;2612276;54;20579;-75
2022/01/30 01:35:54;;;;;;;15.17;5.40;;;7.00;99.90;;;;;;2610306;47;20439;-73
2022/01/30 01:38:21;;;;;;;8.20;3.60;;;6.90;99.90;;;;;;2610635;54;20419;-74
2022/01/30 01:40:55;;;;;;;14.57;4.37;;;7.00;99.90;;;;;;2614516;54;20185;-74
2022/01/30 01:43:23;;;;;;;13.90;5.50;;;6.90;99.90;;;;;;2614108;39;20752;-74
2022/01/30 01:45:51;;;;;;;6.33;2.67;;;6.80;99.90;;;;;;2611992;54;20423;-74
2022/01/30 01:48:18;;;;;;;17.13;4.93;;;6.80;99.90;;;;;;2614214;54;20991;-73
2022/01/30 01:50:52;;;;;;;15.67;4.87;;;6.80;99.90;;;;;;2613312;54;20515;-74
2022/01/30 01:53:21;;;;;;;9.70;3.87;;;6.80;99.90;;;;;;2614850;54;20424;-73
2022/01/30 01:55:47;;;;;;;13.43;3.97;;;6.80;99.90;;;;;;2614079;47;20431;-74
2022/01/30 01:58:24;;;;;;;28.43;6.77;;;6.80;99.90;;;;;;2613608;47;20436;-74
2022/01/30 02:01:09;;;;;;;12.53;5.30;;;6.70;99.90;;;;;;2612110;54;20417;-75
2022/01/30 02:03:39;;;;;;;17.87;4.90;;;6.60;99.90;;;;;;2613685;54;20443;-76
2022/01/30 02:06:08;;;;;;;15.80;6.60;;;6.60;99.90;;;;;;2614092;47;20447;-75
2022/01/30 02:08:38;;;;;;;16.03;5.70;;;6.50;99.90;;;;;;2613607;54;20403;-75
2022/01/30 02:24:59;;;;;;;18.87;5.57;;;6.50;99.90;;;;;;2613379;54;20423;-75
2022/01/30 02:27:31;;;;;;;14.50;6.67;;;6.40;99.90;;;;;;2613772;46;20483;-75
2022/01/30 02:29:58;;;;;;;16.47;5.90;;;6.40;99.90;;;;;;2611882;47;20439;-75
2022/01/30 02:32:25;;;;;;;12.10;4.83;;;6.40;99.90;;;;;;2613795;47;20431;-75
2022/01/30 02:34:51;;;;;;;12.77;4.53;;;6.40;99.90;;;;;;2614584;54;20516;-75
2022/01/30 02:37:18;;;;;;;23.00;7.17;;;6.30;99.90;;;;;;2614094;39;20797;-75
2022/01/30 02:39:44;;;;;;;23.60;8.03;;;6.30;99.90;;;;;;2612165;54;21376;-75
2022/01/30 02:42:18;;;;;;;15.03;6.30;;;6.20;99.90;;;;;;2614017;54;20462;-75
2022/01/30 02:44:51;;;;;;;17.53;6.70;;;6.10;99.90;;;;;;2611201;47;20989;-75
2022/01/30 02:47:41;;;;;;;16.40;5.80;;;6.20;99.90;;;;;;2610257;51;20523;-75
2022/01/30 02:53:04;;;;;;;12.20;6.27;;;6.10;99.90;;;;;;2612149;47;21146;-75
2022/01/30 02:55:30;;;;;;;26.67;6.70;;;6.10;99.90;;;;;;2614545;54;20411;-75
2022/01/30 02:57:56;;;;;;;12.60;6.03;;;6.00;99.90;;;;;;2610857;54;20444;-74
2022/01/30 03:00:22;;;;;;;18.33;6.43;;;6.00;99.90;;;;;;2613455;54;20411;-75
2022/01/30 03:02:48;;;;;;;20.70;6.30;;;6.00;99.90;;;;;;2612814;54;20277;-74
2022/01/30 03:05:16;;;;;;;8.77;4.00;;;6.10;99.90;;;;;;2614354;54;20158;-75
2022/01/30 03:07:42;;;;;;;17.40;6.57;;;6.10;99.90;;;;;;2613779;54;20547;-75
2022/01/30 03:10:08;;;;;;;16.00;5.30;;;6.20;99.90;;;;;;2612490;39;20587;-75
2022/01/30 03:12:33;;;;;;;15.63;4.93;;;6.20;99.90;;;;;;2611725;48;20690;-75
2022/01/30 03:14:59;;;;;;;9.80;4.13;;;6.20;99.90;;;;;;2610291;54;20420;-75
2022/01/30 03:17:25;;;;;;;9.77;5.37;;;6.20;99.90;;;;;;2613610;54;20162;-75
2022/01/30 03:19:51;;;;;;;9.07;4.07;;;6.20;99.90;;;;;;2614035;46;20431;-78
2022/01/30 03:22:17;;;;;;;19.70;6.63;;;6.30;99.90;;;;;;2613942;51;20182;-75
2022/01/30 03:24:43;;;;;;;32.80;6.10;;;6.30;99.90;;;;;;2614630;54;21367;-75
2022/01/30 03:27:29;;;;;;;14.33;4.63;;;6.40;99.90;;;;;;2612516;51;20419;-75
2022/01/30 03:30:04;;;;;;;13.83;4.43;;;6.30;99.90;;;;;;2611373;54;20426;-74
2022/01/30 03:32:51;;;;;;;19.90;6.70;;;6.40;99.90;;;;;;2614205;54;20427;-75
2022/01/30 03:35:18;;;;;;;12.13;5.13;;;6.40;99.90;;;;;;2613454;39;20766;-75
2022/01/30 03:37:44;;;;;;;7.40;3.90;;;6.40;99.90;;;;;;2612810;54;20411;-75
2022/01/30 03:40:11;;;;;;;23.60;7.70;;;6.40;99.90;;;;;;2613355;47;20425;-74
2022/01/30 03:42:38;;;;;;;13.00;5.03;;;6.50;99.90;;;;;;2610356;54;20839;-74
2022/01/30 03:45:05;;;;;;;30.47;6.30;;;6.40;99.90;;;;;;2612659;47;20538;-74
2022/01/30 03:47:31;;;;;;;11.20;3.93;;;6.40;99.90;;;;;;2613883;47;20984;-74
2022/01/30 03:49:58;;;;;;;19.07;6.63;;;6.50;99.90;;;;;;2612625;47;20541;-75
2022/01/30 03:52:24;;;;;;;13.80;6.37;;;6.40;99.90;;;;;;2614323;54;20932;-75
2022/01/30 03:54:51;;;;;;;14.67;6.27;;;6.40;99.90;;;;;;2613113;51;20195;-75
2022/01/30 03:57:17;;;;;;;12.00;3.83;;;6.30;99.90;;;;;;2612113;47;20427;-74
2022/01/30 03:59:43;;;;;;;18.50;5.40;;;6.20;99.90;;;;;;2612328;47;20464;-75
2022/01/30 04:02:09;;;;;;;16.37;4.87;;;6.20;99.90;;;;;;2614247;54;20995;-74
2022/01/30 04:04:35;;;;;;;16.03;5.83;;;6.10;99.90;;;;;;2612955;51;21016;-74
2022/01/30 04:07:03;;;;;;;15.03;6.10;;;6.00;99.90;;;;;;2614229;54;20152;-75
2022/01/30 04:09:47;;;;;;;23.13;4.90;;;6.10;99.90;;;;;;2612706;54;20514;-75
2022/01/30 04:12:24;;;;;;;18.00;5.90;;;5.90;99.90;;;;;;2612292;54;21193;-75
2022/01/30 04:15:03;;;;;;;21.13;4.67;;;5.90;99.90;;;;;;2609567;54;20422;-75
2022/01/30 04:17:50;;;;;;;15.40;5.50;;;5.90;99.90;;;;;;2613100;46;20451;-75
2022/01/30 04:20:38;;;;;;;17.03;6.10;;;5.90;99.90;;;;;;2615187;47;20423;-75
2022/01/30 04:23:17;;;;;;;9.93;3.47;;;5.90;99.90;;;;;;2612554;50;20474;-74
2022/01/30 04:25:46;;;;;;;14.83;5.80;;;5.90;99.90;;;;;;2613301;54;20407;-75
2022/01/30 04:28:47;;;;;;;18.63;6.07;;;5.90;99.90;;;;;;2611229;47;20391;-75
2022/01/30 04:31:29;;;;;;;31.53;6.40;;;5.90;99.90;;;;;;2613312;47;20594;-75
2022/01/30 04:34:14;;;;;;;21.53;6.80;;;5.90;99.90;;;;;;2611321;54;20415;-75
2022/01/30 04:37:04;;;;;;;10.23;4.00;;;5.90;99.90;;;;;;2612801;54;20408;-75
2022/01/30 05:09:48;;;;;;;16.60;5.30;;;6.10;99.90;;;;;;2612245;54;20379;-75
2022/01/30 05:12:43;;;;;;;14.57;4.90;;;6.10;99.90;;;;;;2611195;54;20418;-75
2022/01/30 05:15:29;;;;;;;18.73;5.80;;;6.10;99.90;;;;;;2612479;54;20442;-75
2022/01/30 05:18:28;;;;;;;14.70;5.17;;;6.10;99.90;;;;;;2612941;54;20962;-76
2022/01/30 05:21:19;;;;;;;9.07;4.40;;;6.10;99.90;;;;;;2612279;47;20398;-76
2022/01/30 05:24:06;;;;;;;18.10;5.27;;;6.10;99.90;;;;;;2613938;54;20431;-74
2022/01/30 05:26:44;;;;;;;16.50;5.83;;;6.10;99.90;;;;;;2613241;54;20442;-75
2022/01/30 05:29:30;;;;;;;19.17;6.53;;;6.10;99.90;;;;;;2611790;47;20419;-74
2022/01/30 05:32:19;;;;;;;12.73;5.50;;;5.90;99.90;;;;;;2613621;47;20429;-75
2022/01/30 05:35:12;;;;;;;16.77;6.27;;;5.90;99.90;;;;;;2612609;54;20431;-75
2022/01/30 05:37:59;;;;;;;18.83;5.37;;;5.90;99.90;;;;;;2612117;47;20411;-75
2022/01/30 05:40:43;;;;;;;10.93;4.63;;;6.00;99.90;;;;;;2614791;31;20867;-75
2022/01/30 05:43:10;;;;;;;14.43;5.93;;;6.10;99.90;;;;;;2614950;54;20459;-74
2022/01/30 05:46:15;;;;;;;12.40;3.87;;;6.00;99.90;;;;;;2610815;47;21059;-75
2022/01/30 05:48:51;;;;;;;15.67;6.20;;;6.00;99.90;;;;;;2610395;51;20415;-74
2022/01/30 05:51:22;;;;;;;14.83;5.30;;;6.00;99.90;;;;;;2610459;54;20404;-75
2022/01/30 05:53:51;;;;;;;12.03;3.60;;;6.10;99.90;;;;;;2611844;47;20456;-75
2022/01/30 05:56:19;;;;;;;9.27;5.07;;;6.00;99.90;;;;;;2612865;46;20483;-75
2022/01/30 05:58:45;;;;;;;12.83;3.27;;;6.00;99.90;;;;;;2609987;47;20973;-75
2022/01/30 06:01:29;;;;;;;18.23;5.50;;;6.10;99.90;;;;;;2611586;54;20394;-75
2022/01/30 06:04:07;;;;;;;10.90;5.17;;;6.10;99.90;;;;;;2612931;47;20482;-75
2022/01/30 06:06:33;;;;;;;19.17;6.70;;;6.20;99.90;;;;;;2612068;47;20431;-75
2022/01/30 06:09:18;;;;;;;23.27;5.13;;;6.10;99.90;;;;;;2610678;47;20188;-76
2022/01/30 06:11:51;;;;;;;11.13;4.23;;;6.10;99.90;;;;;;2612755;47;20183;-75
2022/01/30 06:14:22;;;;;;;3.87;2.87;;;6.10;99.90;;;;;;2610132;51;20408;-76
2022/01/30 06:16:49;;;;;;;10.00;3.90;;;6.00;99.90;;;;;;2610188;47;20424;-75
2022/01/30 06:19:35;;;;;;;11.60;4.17;;;6.00;99.90;;;;;;2610213;47;20399;-75
2022/01/30 06:22:19;;;;;;;23.27;5.60;;;5.90;99.90;;;;;;2613291;54;20410;-75
2022/01/30 06:25:05;;;;;;;13.27;5.70;;;5.80;99.90;;;;;;2612279;54;20535;-74
2022/01/30 06:27:57;;;;;;;18.40;6.30;;;5.80;99.90;;;;;;2611058;47;20427;-75
2022/01/30 06:30:41;;;;;;;12.73;5.83;;;5.70;99.90;;;;;;2611919;54;20563;-75
2022/01/30 06:33:36;;;;;;;17.73;5.03;;;5.70;99.90;;;;;;2611363;47;20400;-74
2022/01/30 06:36:11;;;;;;;21.63;4.80;;;5.60;99.90;;;;;;2612531;54;20414;-75
2022/01/30 06:38:42;;;;;;;10.40;4.10;;;5.50;99.90;;;;;;2611139;47;20511;-74
2022/01/30 06:41:39;;;;;;;12.73;4.67;;;5.50;99.90;;;;;;2610745;54;20395;-74
2022/01/30 06:44:31;;;;;;;22.87;5.20;;;5.50;99.90;;;;;;2610417;54;20380;-75
2022/01/30 06:47:16;;;;;;;8.93;3.20;;;5.40;99.90;;;;;;2610316;47;20899;-74
2022/01/30 06:50:00;;;;;;;22.00;5.53;;;5.40;99.90;;;;;;2611016;54;20441;-75
2022/01/30 06:52:45;;;;;;;15.00;6.13;;;5.30;99.90;;;;;;2610210;54;20478;-76
2022/01/30 06:55:26;;;;;;;15.23;5.30;;;5.30;99.90;;;;;;2609674;54;20411;-73
2022/01/30 06:58:17;;;;;;;8.80;3.80;;;5.30;99.90;;;;;;2612628;54;20522;-79
2022/01/30 07:01:21;;;;;;;19.73;6.17;;;5.20;99.90;;;;;;2609146;54;20403;-76
2022/01/30 07:04:05;;;;;;;14.37;4.40;;;5.30;99.90;;;;;;2608465;54;20488;-76
2022/01/30 07:06:51;;;;;;;10.20;4.80;;;5.20;99.90;;;;;;2609702;54;20451;-75
2022/01/30 07:09:17;;;;;;;11.20;4.53;;;5.20;99.90;;;;;;2610053;47;20422;-75
2022/01/30 07:11:43;;;;;;;13.40;4.70;;;5.20;99.90;;;;;;2610957;31;20991;-75
2022/01/30 07:14:09;;;;;;;19.93;5.10;;;5.10;99.90;;;;;;2610918;54;20414;-75
2022/01/30 07:16:34;;;;;;;13.10;5.00;;;5.10;99.90;;;;;;2610435;54;20158;-75
2022/01/30 07:19:00;;;;;;;27.27;5.20;;;5.10;99.90;;;;;;2664727;36;20234;-75
2022/01/30 07:21:26;;;;;;;9.23;4.03;;;5.20;99.90;;;;;;2611527;54;20196;-75
2022/01/30 07:23:52;;;;;;;9.00;3.73;;;5.30;99.90;;;;;;2612393;47;20198;-76
2022/01/30 07:26:17;;;;;;;9.70;4.17;;;5.30;99.90;;;;;;2611822;54;20234;-76
2022/01/30 07:28:43;;;;;;;14.27;5.03;;;5.40;99.90;;;;;;2609668;47;20174;-75
2022/01/30 07:31:09;;;;;;;9.23;3.90;;;5.40;99.90;;;;;;2609858;47;20195;-75
2022/01/30 07:33:35;;;;;;;9.17;4.60;;;5.50;99.90;;;;;;2612248;39;20572;-75
2022/01/30 07:36:02;;;;;;;14.00;4.70;;;5.50;99.90;;;;;;2611706;47;20671;-75
2022/01/30 07:38:28;;;;;;;18.03;6.27;;;5.40;99.90;;;;;;2610062;54;21041;-75
2022/01/30 07:40:55;;;;;;;10.00;4.63;;;5.50;99.90;;;;;;2611152;54;20420;-76
2022/01/30 07:43:20;;;;;;;19.87;5.10;;;5.40;99.90;;;;;;2612295;54;21521;-75
2022/01/30 07:46:12;;;;;;;15.70;5.03;;;5.30;99.90;;;;;;2612098;54;20975;-76
2022/01/30 07:48:38;;;;;;;17.40;4.80;;;5.30;99.90;;;;;;2610943;54;20422;-76
2022/01/30 07:51:04;;;;;;;10.10;4.77;;;5.30;99.90;;;;;;2610980;54;20694;-75
2022/01/30 07:53:30;;;;;;;24.27;6.20;;;5.40;99.90;;;;;;2612281;46;20167;-75
2022/01/30 07:55:56;;;;;;;11.10;5.70;;;5.40;99.90;;;;;;2612316;47;20395;-75
2022/01/30 07:58:22;;;;;;;11.70;4.70;;;5.40;99.90;;;;;;2613011;54;20151;-75
2022/01/30 08:00:48;;;;;;;10.07;3.77;;;5.30;99.90;;;;;;2610497;54;20427;-76
2022/01/30 08:03:14;;;;;;;11.17;4.87;;;5.30;99.90;;;;;;2611729;54;21099;-76
2022/01/30 08:05:40;;;;;;;19.40;6.60;;;5.30;99.90;;;;;;2612267;54;21059;-74
2022/01/30 08:08:06;;;;;;;10.60;4.50;;;5.40;99.90;;;;;;2611162;39;20764;-76
2022/01/30 08:10:33;;;;;;;16.03;5.50;;;5.50;99.90;;;;;;2612865;54;20639;-76
2022/01/30 08:12:59;;;;;;;4.67;4.23;;;5.70;99.90;;;;;;2611832;54;20527;-75
2022/01/30 08:15:26;;;;;;;13.03;4.83;;;5.90;99.90;;;;;;2611293;54;21040;-75
2022/01/30 08:17:53;;;;;;;14.57;3.47;;;6.00;99.90;;;;;;2611900;54;20416;-75
2022/01/30 08:20:21;;;;;;;15.53;7.47;;;6.00;99.90;;;;;;2612099;47;20435;-75
2022/01/30 08:22:49;;;;;;;16.63;6.17;;;6.10;99.90;;;;;;2613931;46;20487;-79
2022/01/30 08:25:20;;;;;;;19.83;7.60;;;6.20;99.90;;;;;;2613927;54;20422;-75
2022/01/30 08:27:48;;;;;;;10.77;3.50;;;6.40;99.90;;;;;;2610296;54;21008;-75
2022/01/30 08:30:14;;;;;;;17.77;4.90;;;6.80;99.90;;;;;;2613130;54;20407;-75
2022/01/30 08:32:44;;;;;;;12.27;4.70;;;6.90;99.90;;;;;;2613207;54;20454;-75
2022/01/30 08:35:12;;;;;;;13.73;3.53;;;6.80;99.90;;;;;;2613998;54;20431;-76
2022/01/30 08:37:39;;;;;;;9.70;3.30;;;6.60;99.90;;;;;;2613796;54;20431;-75
2022/01/30 08:40:08;;;;;;;9.20;3.30;;;7.00;99.90;;;;;;2612582;54;20455;-75
2022/01/30 08:42:34;;;;;;;12.20;4.50;;;7.00;99.90;;;;;;2614088;39;20853;-75
2022/01/30 08:45:01;;;;;;;9.10;4.80;;;7.50;99.90;;;;;;2612412;54;20416;-75
2022/01/30 08:47:26;;;;;;;10.10;4.00;;;7.30;99.90;;;;;;2614306;39;20563;-75
2022/01/30 08:49:53;;;;;;;13.80;5.63;;;6.80;99.90;;;;;;2612610;54;20403;-75
2022/01/30 08:52:19;;;;;;;22.40;5.50;;;6.60;99.90;;;;;;2613538;39;20673;-75
2022/01/30 08:54:48;;;;;;;9.90;4.33;;;6.50;99.90;;;;;;2613650;54;20419;-75
2022/01/30 08:57:13;;;;;;;9.23;3.70;;;6.70;99.90;;;;;;2613626;54;20416;-75
2022/01/30 08:59:39;;;;;;;11.80;4.10;;;6.60;99.90;;;;;;2612187;47;21012;-74
2022/01/30 09:02:05;;;;;;;7.43;2.97;;;6.50;99.90;;;;;;2613490;54;20178;-75
2022/01/30 09:04:31;;;;;;;15.80;4.77;;;6.40;99.90;;;;;;2610975;54;21036;-75
2022/01/30 09:06:58;;;;;;;6.93;3.77;;;6.30;99.90;;;;;;2611807;54;20173;-75
2022/01/30 09:09:23;;;;;;;15.00;4.70;;;6.40;99.90;;;;;;2612200;51;20447;-74
2022/01/30 09:11:49;;;;;;;31.80;9.80;;;6.30;99.90;;;;;;2614272;39;20829;-75
2022/01/30 09:14:15;;;;;;;9.57;4.80;;;6.40;99.90;;;;;;2613509;54;20147;-76
2022/01/30 09:16:42;;;;;;;19.40;5.90;;;6.40;99.90;;;;;;2614679;54;20143;-75
2022/01/30 09:19:08;;;;;;;15.30;4.00;;;6.50;99.90;;;;;;2613725;54;20407;-74
2022/01/30 09:21:34;;;;;;;11.47;4.40;;;6.50;99.90;;;;;;2614214;54;21050;-75
2022/01/30 09:24:00;;;;;;;20.27;5.50;;;6.40;99.90;;;;;;2613529;54;20171;-76
2022/01/30 09:26:25;;;;;;;18.87;3.43;;;6.20;99.90;;;;;;2613718;47;20424;-75
2022/01/30 09:28:51;;;;;;;16.97;4.70;;;6.30;99.90;;;;;;2612776;54;20158;-75
2022/01/30 09:31:17;;;;;;;12.77;4.50;;;6.30;99.90;;;;;;2613055;47;20220;-75
2022/01/30 09:33:43;;;;;;;18.77;5.27;;;6.50;99.90;;;;;;2614242;39;20574;-75
2022/01/30 09:36:09;;;;;;;23.67;6.70;;;6.80;99.90;;;;;;2613957;54;20194;-75
2022/01/30 09:38:34;;;;;;;19.80;5.30;;;6.70;99.90;;;;;;2612548;47;20177;-75
2022/01/30 09:41:03;;;;;;;20.00;5.00;;;6.60;99.90;;;;;;2612371;54;20178;-76
2022/01/30 09:43:29;;;;;;;19.63;4.70;;;7.00;99.90;;;;;;2612899;54;20175;-75
2022/01/30 09:45:56;;;;;;;13.10;5.73;;;7.30;99.90;;;;;;2613770;54;21130;-75
2022/01/30 09:48:23;;;;;;;19.13;4.70;;;7.70;99.90;;;;;;2613409;54;20403;-75
2022/01/30 09:50:50;;;;;;;15.93;5.47;;;7.50;99.90;;;;;;2613712;54;20438;-75
2022/01/30 09:53:17;;;;;;;15.30;5.40;;;7.40;99.90;;;;;;2614081;39;20998;-76
2022/01/30 09:55:42;;;;;;;21.80;6.80;;;7.20;99.90;;;;;;2612549;47;20425;-74
2022/01/30 09:58:08;;;;;;;13.43;5.40;;;7.10;99.90;;;;;;2614062;54;20944;-74
2022/01/30 10:00:35;;;;;;;13.23;4.40;;;7.80;99.90;;;;;;2611888;54;20258;-77
2022/01/30 10:03:01;;;;;;;16.00;7.47;;;7.90;99.90;;;;;;2613225;54;20965;-75
2022/01/30 10:05:32;;;;;;;22.00;4.90;;;7.60;99.90;;;;;;2612568;46;20527;-74
2022/01/30 10:07:58;;;;;;;27.27;7.07;;;8.30;99.90;;;;;;2611872;47;20174;-75
2022/01/30 10:10:27;;;;;;;12.83;4.77;;;9.40;99.90;;;;;;2613619;47;20536;-75
2022/01/30 10:13:05;;;;;;;13.87;4.97;;;9.20;99.90;;;;;;2614189;54;20983;-75
2022/01/30 10:15:56;;;;;;;26.97;5.30;;;9.30;99.90;;;;;;2612446;54;20928;-74
2022/01/30 10:18:23;;;;;;;14.40;5.00;;;9.80;99.90;;;;;;2612678;54;21086;-74
2022/01/30 10:20:49;;;;;;;18.23;4.93;;;9.30;99.90;;;;;;2613581;47;20403;-75
2022/01/30 10:23:16;;;;;;;10.23;3.73;;;9.30;99.90;;;;;;2612457;31;20887;-75
2022/01/30 10:25:52;;;;;;;13.57;6.37;;;9.30;99.90;;;;;;2612780;54;20409;-74
2022/01/30 10:28:19;;;;;;;14.10;5.70;;;8.80;99.90;;;;;;2609790;54;20508;-75
2022/01/30 10:30:56;;;;;;;33.87;7.67;;;8.50;99.90;;;;;;2611920;54;20424;-75
2022/01/30 10:33:37;;;;;;;19.70;5.67;;;9.50;99.90;;;;;;2612670;54;20448;-76
2022/01/30 10:36:03;;;;;;;28.23;6.57;;;9.50;99.90;;;;;;2610402;54;20414;-75
2022/01/30 10:38:33;;;;;;;18.10;4.70;;;9.50;99.90;;;;;;2611465;39;20807;-77
2022/01/30 10:41:18;;;;;;;26.80;6.43;;;10.00;99.50;;;;;;2611997;47;20779;-74
2022/01/30 10:44:00;;;;;;;19.77;5.47;;;10.50;94.10;;;;;;2611079;47;20416;-74
2022/01/30 10:46:45;;;;;;;22.43;4.80;;;10.10;95.80;;;;;;2611145;54;20425;-74
2022/01/30 10:49:15;;;;;;;13.60;5.33;;;9.70;98.00;;;;;;2612728;51;20420;-76
2022/01/30 10:51:58;;;;;;;15.90;4.50;;;9.50;98.50;;;;;;2613567;54;20415;-75
2022/01/30 10:54:32;;;;;;;16.23;5.63;;;10.60;90.30;;;;;;2612802;54;20455;-75
2022/01/30 10:57:06;;;;;;;14.63;4.13;;;11.50;71.20;;;;;;2612428;54;20410;-74
2022/01/30 10:59:33;;;;;;;9.43;4.67;;;11.70;66.00;;;;;;2610451;54;20456;-75
2022/01/30 11:02:11;;;;;;;12.17;4.53;;;10.50;64.60;;;;;;2611282;47;20414;-75
2022/01/30 11:04:37;;;;;;;19.07;5.87;;;10.00;76.00;;;;;;2611310;54;20590;-75
2022/01/30 11:07:04;;;;;;;15.03;5.27;;;10.50;71.40;;;;;;2611922;39;20775;-75
2022/01/30 11:09:44;;;;;;;13.70;3.97;;;9.90;78.00;;;;;;2610398;54;20161;-76
2022/01/30 11:12:15;;;;;;;16.97;5.03;;;10.10;66.70;;;;;;2609843;54;20404;-75
2022/01/30 11:17:20;;;;;;;36.13;5.50;;;10.60;52.70;;;;;;2610444;54;20436;-75
2022/01/30 11:19:49;;;;;;;17.37;4.10;;;10.80;49.80;;;;;;2610943;47;20439;-77
2022/01/30 11:22:18;;;;;;;20.30;4.40;;;10.40;56.60;;;;;;2612381;54;20403;-75
2022/01/30 11:24:48;;;;;;;14.93;5.93;;;10.50;57.70;;;;;;2611072;47;20432;-74
2022/01/30 11:27:16;;;;;;;18.70;5.37;;;10.90;57.00;;;;;;2609851;47;20407;-75
2022/01/30 11:29:42;;;;;;;16.43;4.50;;;11.10;55.50;;;;;;2606082;54;20442;-75
2022/01/30 11:32:09;;;;;;;15.70;5.27;;;10.90;57.30;;;;;;2609487;54;20412;-75
2022/01/30 11:34:38;;;;;;;20.50;5.40;;;10.60;65.90;;;;;;2608883;54;20559;-74
2022/01/30 11:37:06;;;;;;;14.80;5.17;;;10.20;61.70;;;;;;2610359;47;20427;-74
2022/01/30 11:39:33;;;;;;;19.53;5.33;;;9.00;82.30;;;;;;2609133;54;20423;-76
2022/01/30 11:42:23;;;;;;;10.93;4.20;;;9.00;83.40;;;;;;2610473;54;20375;-75
2022/01/30 11:45:03;;;;;;;13.33;5.40;;;8.90;86.40;;;;;;2608971;47;20465;-74
2022/01/30 11:47:42;;;;;;;33.33;6.23;;;9.20;80.80;;;;;;2610557;39;20915;-75
2022/01/30 11:50:09;;;;;;;24.50;6.83;;;8.80;84.60;;;;;;2610750;46;20423;-75
2022/01/30 11:53:04;;;;;;;21.43;6.23;;;8.60;87.50;;;;;;2610405;46;20431;-75
2022/01/30 11:55:46;;;;;;;19.00;5.27;;;9.20;75.80;;;;;;2611014;39;20794;-75
2022/01/30 11:58:34;;;;;;;19.20;5.80;;;8.70;82.60;;;;;;2611098;54;20404;-75
2022/01/30 12:01:25;;;;;;;32.77;6.60;;;8.40;91.50;;;;;;2610428;47;20415;-74
2022/01/30 12:03:59;;;;;;;23.17;7.00;;;9.00;85.80;;;;;;2610351;54;20515;-75
2022/01/30 12:06:25;;;;;;;17.10;7.27;;;9.30;75.00;;;;;;2609386;54;20442;-75
2022/01/30 12:08:52;;;;;;;18.23;5.17;;;9.30;81.40;;;;;;2612252;47;20856;-75
2022/01/30 12:11:37;;;;;;;14.80;6.03;;;8.80;90.00;;;;;;2612008;54;20158;-74
2022/01/30 12:14:02;;;;;;;16.93;6.70;;;8.50;90.80;;;;;;2611199;39;20530;-75
2022/01/30 12:16:47;;;;;;;19.37;7.53;;;8.90;78.20;;;;;;2611702;54;20427;-75
2022/01/30 12:19:18;;;;;;;23.50;6.20;;;8.20;80.30;;;;;;2611361;54;20143;-74
2022/01/30 12:21:44;;;;;;;31.67;8.07;;;8.20;88.50;;;;;;2611979;54;20450;-75
2022/01/30 12:24:27;;;;;;;22.87;8.20;;;8.30;90.50;;;;;;2612658;54;20538;-75
2022/01/30 12:27:00;;;;;;;23.40;9.37;;;8.70;90.20;;;;;;2611173;54;20415;-74
2022/01/30 12:29:40;;;;;;;23.80;6.50;;;9.10;80.10;;;;;;2611792;54;20391;-74
2022/01/30 12:35:07;;;;;;;21.67;6.20;;;10.20;61.50;;;;;;2611779;54;20531;-75
2022/01/30 12:37:36;;;;;;;14.73;5.40;;;10.70;55.80;;;;;;2613639;54;20496;-75
2022/01/30 12:40:22;;;;;;;20.70;6.73;;;10.40;62.60;;;;;;2611967;47;20412;-75
2022/01/30 12:42:48;;;;;;;21.13;5.60;;;9.50;78.70;;;;;;2611028;54;20449;-74
2022/01/30 12:45:15;;;;;;;37.90;7.10;;;8.50;95.60;;;;;;2612107;54;20416;-74
2022/01/30 12:47:58;;;;;;;15.17;6.20;;;8.00;99.90;;;;;;2611907;39;20884;-74
2022/01/30 12:50:28;;;;;;;26.80;7.07;;;8.20;99.90;;;;;;2612108;54;20968;-74
2022/01/30 12:52:55;;;;;;;20.63;6.03;;;8.40;99.90;;;;;;2612673;54;20396;-74
2022/01/30 12:55:22;;;;;;;27.53;5.90;;;8.50;98.40;;;;;;2610561;54;20406;-76
2022/01/30 12:57:51;;;;;;;23.37;5.97;;;9.10;91.60;;;;;;2612250;47;20415;-74
2022/01/30 13:00:17;;;;;;;27.97;6.10;;;10.50;70.70;;;;;;2613524;54;20419;-74
2022/01/30 13:02:58;;;;;;;15.73;6.17;;;11.40;56.50;;;;;;2613397;47;20466;-74
2022/01/30 13:05:25;;;;;;;14.03;4.20;;;12.80;46.90;;;;;;2609734;54;20443;-75
2022/01/30 13:07:56;;;;;;;24.37;5.93;;;11.40;52.90;;;;;;2610978;54;20427;-75
2022/01/30 13:10:23;;;;;;;25.20;6.80;;;9.90;67.00;;;;;;2612864;54;20431;-75
2022/01/30 13:12:49;;;;;;;18.67;6.60;;;9.10;89.90;;;;;;2611559;47;20973;-76
2022/01/30 13:15:18;;;;;;;11.83;4.70;;;8.90;92.10;;;;;;2611003;54;20396;-74
2022/01/30 13:17:45;;;;;;;12.97;4.30;;;8.70;94.00;;;;;;2611798;54;20426;-74
2022/01/30 13:20:13;;;;;;;22.37;7.40;;;8.80;93.20;;;;;;2612219;54;20544;-73
2022/01/30 13:22:43;;;;;;;16.73;5.57;;;9.00;91.00;;;;;;2612911;54;20416;-74
2022/01/30 13:25:20;;;;;;;11.97;5.27;;;8.70;92.20;;;;;;2611742;54;20427;-74
2022/01/30 13:27:48;;;;;;;24.50;6.90;;;8.30;99.90;;;;;;2611996;54;20975;-74
2022/01/30 13:30:30;;;;;;;30.33;6.93;;;8.30;99.90;;;;;;2612360;54;20426;-75
2022/01/30 13:32:56;;;;;;;46.83;9.27;;;8.50;99.90;;;;;;2611950;47;21148;-75
2022/01/30 13:35:24;;;;;;;22.90;5.43;;;8.80;99.50;;;;;;2612004;54;20479;-74
2022/01/30 13:37:53;;;;;;;24.33;6.57;;;8.70;96.40;;;;;;2612289;54;20400;-74
2022/01/30 13:40:36;;;;;;;37.57;7.67;;;8.50;99.90;;;;;;2610878;54;21126;-74
2022/01/30 13:43:15;;;;;;;12.30;4.43;;;8.60;99.90;;;;;;2611655;39;20671;-74
2022/01/30 13:48:34;;;;;;;27.20;6.53;;;9.10;90.80;;;;;;2612448;54;20426;-75
2022/01/30 13:51:06;;;;;;;24.17;6.67;;;9.10;93.50;;;;;;2611219;47;20461;-74
2022/01/30 13:53:36;;;;;;;19.43;7.70;;;9.10;94.10;;;;;;2611962;47;20454;-75
2022/01/30 13:56:05;;;;;;;19.07;6.50;;;8.80;94.70;;;;;;2610772;54;20419;-75
2022/01/30 13:58:40;;;;;;;24.80;5.83;;;8.50;86.80;;;;;;2612540;54;20413;-74
2022/01/30 14:01:17;;;;;;;20.37;5.67;;;8.20;71.00;;;;;;2611671;47;20418;-74
2022/01/30 14:03:45;;;;;;;15.07;6.77;;;8.10;76.30;;;;;;2611428;46;20431;-74
2022/01/30 14:06:20;;;;;;;30.40;6.90;;;7.90;81.40;;;;;;2611624;54;20402;-74
2022/01/30 14:08:58;;;;;;;19.17;6.70;;;7.80;89.00;;;;;;2611694;54;20399;-75
2022/01/30 14:11:33;;;;;;;22.07;5.73;;;7.70;90.20;;;;;;2611673;47;20438;-74
2022/01/30 14:14:15;;;;;;;16.50;4.87;;;7.70;90.40;;;;;;2612378;39;20818;-75
2022/01/30 14:16:47;;;;;;;19.97;5.63;;;7.60;85.30;;;;;;2612195;54;20411;-74